Time;durP1;ratioP1;P1;durP2;ratioP2;P2;SDS_P1;SDS_P2;PMS_P1;PMS_P2;Temp;Humidity;BMP_temperature;BMP_pressure;BME280_temperature;BME280_humidity;BME280_pressure;Samples;Min_cycle;Max_cycle;Signal;HPM_P1;HPM_P2
2021/09/03 00:00:26;;;;;;;24.75;15.95;;;13.40;99.90;;;;;;5074711;28;20076;-72
2021/09/03 00:02:53;;;;;;;31.60;17.45;;;13.40;99.90;;;;;;5076080;28;20063;-72
2021/09/03 00:05:20;;;;;;;28.73;15.65;;;13.30;99.90;;;;;;5076426;28;20048;-72
2021/09/03 00:07:46;;;;;;;31.67;16.52;;;13.30;99.90;;;;;;5076377;28;20467;-72
2021/09/03 00:10:15;;;;;;;24.35;16.48;;;13.30;99.90;;;;;;5076062;28;20075;-72
2021/09/03 00:12:41;;;;;;;26.58;15.38;;;13.20;99.90;;;;;;5074634;28;20036;-72
2021/09/03 00:15:10;;;;;;;27.48;16.35;;;13.30;99.90;;;;;;5074887;28;20178;-72
2021/09/03 00:17:36;;;;;;;28.70;17.15;;;13.20;99.90;;;;;;5075915;28;20051;-72
2021/09/03 00:20:04;;;;;;;25.65;14.70;;;13.20;99.90;;;;;;5074083;28;20044;-72
2021/09/03 00:22:29;;;;;;;24.63;14.63;;;13.20;99.90;;;;;;5076076;28;20032;-72
2021/09/03 00:24:55;;;;;;;24.70;16.05;;;13.20;99.90;;;;;;5075907;28;20037;-72
2021/09/03 00:27:20;;;;;;;33.17;17.85;;;13.10;99.90;;;;;;5075634;28;20559;-72
2021/09/03 00:29:46;;;;;;;36.00;17.65;;;13.10;99.90;;;;;;5074078;28;20120;-72
2021/09/03 00:32:11;;;;;;;31.13;16.92;;;13.10;99.90;;;;;;5074636;28;20036;-72
2021/09/03 00:34:37;;;;;;;29.95;17.92;;;13.10;99.90;;;;;;5075510;28;20080;-72
2021/09/03 00:37:03;;;;;;;28.73;17.23;;;13.10;99.90;;;;;;5075636;28;20040;-72
2021/09/03 00:39:28;;;;;;;32.30;17.10;;;13.10;99.90;;;;;;5075141;28;20090;-72
2021/09/03 00:41:54;;;;;;;30.25;17.48;;;13.10;99.90;;;;;;5074232;28;20048;-72
2021/09/03 00:44:20;;;;;;;30.77;17.30;;;13.10;99.90;;;;;;5075507;28;20115;-72
2021/09/03 00:46:45;;;;;;;25.20;15.32;;;13.00;99.90;;;;;;5074065;28;20373;-72
2021/09/03 00:49:11;;;;;;;26.35;17.02;;;13.00;99.90;;;;;;5075360;28;20037;-72
2021/09/03 00:51:38;;;;;;;23.80;15.57;;;13.00;99.90;;;;;;5074177;28;20058;-72
2021/09/03 00:54:04;;;;;;;24.67;15.07;;;13.00;99.90;;;;;;5075128;28;20063;-72
2021/09/03 00:56:30;;;;;;;22.30;15.00;;;13.00;99.90;;;;;;5075102;28;20472;-72
2021/09/03 00:58:55;;;;;;;26.38;15.82;;;12.90;99.90;;;;;;5074798;28;20036;-72
2021/09/03 01:01:21;;;;;;;26.58;15.02;;;13.00;99.90;;;;;;5075236;28;20033;-72
2021/09/03 01:03:47;;;;;;;24.33;13.93;;;12.90;99.90;;;;;;5075329;28;20448;-72
2021/09/03 01:06:13;;;;;;;22.48;13.35;;;12.90;99.90;;;;;;5074033;28;20040;-72
2021/09/03 01:08:38;;;;;;;21.85;13.23;;;12.80;99.90;;;;;;5073068;28;20173;-72
2021/09/03 01:11:04;;;;;;;22.30;14.30;;;12.80;99.90;;;;;;5073590;28;20043;-72
2021/09/03 01:13:30;;;;;;;23.48;14.02;;;12.90;99.90;;;;;;5073648;28;20040;-72
2021/09/03 01:15:55;;;;;;;24.27;14.20;;;12.80;99.90;;;;;;5073472;28;20048;-72
2021/09/03 01:18:21;;;;;;;25.17;16.88;;;12.80;99.90;;;;;;5074627;28;20072;-72
2021/09/03 01:20:47;;;;;;;24.10;14.07;;;12.80;99.90;;;;;;5074378;28;20416;-72
2021/09/03 01:23:13;;;;;;;24.88;14.65;;;12.80;99.90;;;;;;5073393;28;20036;-72
2021/09/03 01:25:40;;;;;;;21.65;14.77;;;12.80;99.90;;;;;;5074588;28;20044;-72
2021/09/03 01:28:06;;;;;;;26.48;15.88;;;12.80;99.90;;;;;;5074539;28;20037;-72
2021/09/03 01:30:32;;;;;;;25.35;15.35;;;12.80;99.90;;;;;;5056691;28;20048;-72
2021/09/03 01:32:57;;;;;;;27.23;15.18;;;12.70;99.90;;;;;;5074868;28;20487;-72
2021/09/03 01:35:23;;;;;;;25.58;15.52;;;12.70;99.90;;;;;;5074947;28;20116;-72
2021/09/03 01:37:49;;;;;;;23.75;14.32;;;12.70;99.90;;;;;;5074578;28;20037;-72
2021/09/03 01:40:14;;;;;;;27.65;15.13;;;12.70;99.90;;;;;;5073828;28;20032;-72
2021/09/03 01:42:40;;;;;;;22.52;14.07;;;12.70;99.90;;;;;;5074164;28;20472;-72
2021/09/03 01:45:07;;;;;;;25.27;14.30;;;12.70;99.90;;;;;;5074208;28;20048;-72
2021/09/03 01:47:33;;;;;;;23.75;14.27;;;12.70;99.90;;;;;;5073252;28;20040;-72
2021/09/03 01:49:58;;;;;;;25.67;14.73;;;12.70;99.90;;;;;;5073849;28;20124;-72
2021/09/03 01:52:24;;;;;;;25.52;15.13;;;12.70;99.90;;;;;;5073887;28;20036;-72
2021/09/03 01:54:50;;;;;;;30.40;16.10;;;12.60;99.90;;;;;;5072680;28;20048;-72
2021/09/03 01:57:15;;;;;;;20.33;14.13;;;12.60;99.90;;;;;;5074128;28;20040;-72
2021/09/03 01:59:41;;;;;;;24.00;13.98;;;12.60;99.90;;;;;;5072341;28;20044;-72
2021/09/03 02:02:06;;;;;;;23.10;14.60;;;12.60;99.90;;;;;;5072869;28;20098;-72
2021/09/03 02:04:32;;;;;;;23.52;15.20;;;12.60;99.90;;;;;;5073627;28;20377;-72
2021/09/03 02:06:58;;;;;;;25.90;15.25;;;12.50;99.90;;;;;;5074351;28;20044;-72
2021/09/03 02:09:24;;;;;;;27.63;15.02;;;12.50;99.90;;;;;;5073371;28;20040;-72
2021/09/03 02:11:49;;;;;;;28.27;15.35;;;12.50;99.90;;;;;;5072630;28;20059;-72
2021/09/03 02:14:15;;;;;;;25.67;15.23;;;12.50;99.90;;;;;;5073636;28;20055;-72
2021/09/03 02:16:41;;;;;;;24.38;14.82;;;12.50;99.90;;;;;;5073758;28;20528;-72
2021/09/03 02:19:07;;;;;;;24.35;13.77;;;12.50;99.90;;;;;;5072944;28;20032;-72
2021/09/03 02:21:33;;;;;;;23.92;14.23;;;12.50;99.90;;;;;;5073543;28;20385;-72
2021/09/03 02:23:58;;;;;;;19.65;12.20;;;12.40;99.90;;;;;;5073343;28;20040;-72
2021/09/03 02:26:24;;;;;;;19.88;11.93;;;12.40;99.90;;;;;;5072320;28;20448;-72
2021/09/03 02:28:49;;;;;;;18.70;11.70;;;12.40;99.90;;;;;;5073190;28;20032;-72
2021/09/03 02:31:15;;;;;;;15.75;10.57;;;12.40;99.90;;;;;;5055522;28;20071;-72
2021/09/03 02:33:41;;;;;;;15.32;9.50;;;12.30;99.90;;;;;;5072193;28;20127;-72
2021/09/03 02:36:07;;;;;;;15.43;9.82;;;12.30;99.90;;;;;;5073300;28;20040;-72
2021/09/03 02:38:32;;;;;;;16.50;10.90;;;12.30;99.90;;;;;;5072949;28;20036;-72
2021/09/03 02:40:58;;;;;;;20.23;11.98;;;12.30;99.90;;;;;;5073393;28;20043;-72
2021/09/03 02:43:25;;;;;;;19.80;12.07;;;12.30;99.90;;;;;;5073163;28;20036;-71
2021/09/03 02:45:51;;;;;;;19.95;11.80;;;12.30;99.90;;;;;;5073253;28;20036;-72
2021/09/03 02:48:16;;;;;;;19.27;11.40;;;12.30;99.90;;;;;;5073460;28;20040;-71
2021/09/03 02:50:42;;;;;;;18.52;11.80;;;12.20;99.90;;;;;;5072910;28;20043;-71
2021/09/03 02:53:07;;;;;;;22.42;13.02;;;12.30;99.90;;;;;;5073710;28;20519;-71
2021/09/03 02:55:33;;;;;;;21.20;12.95;;;12.20;99.90;;;;;;5072243;28;20076;-72
2021/09/03 02:57:58;;;;;;;20.05;12.07;;;12.30;99.90;;;;;;5073138;28;20040;-71
2021/09/03 03:00:24;;;;;;;20.92;13.20;;;12.20;99.90;;;;;;5072912;28;20389;-72
2021/09/03 03:02:51;;;;;;;19.42;11.98;;;12.30;99.90;;;;;;5073583;28;20040;-71
2021/09/03 03:05:17;;;;;;;17.67;11.30;;;12.20;99.90;;;;;;5072181;28;20041;-71
2021/09/03 03:07:43;;;;;;;16.55;10.68;;;12.10;99.90;;;;;;5073163;28;20502;-71
2021/09/03 03:10:09;;;;;;;16.35;10.73;;;12.20;99.90;;;;;;5054775;28;20040;-71
2021/09/03 03:12:35;;;;;;;15.07;10.55;;;12.20;99.90;;;;;;5072394;28;20037;-71
2021/09/03 03:15:01;;;;;;;16.73;10.23;;;12.20;99.90;;;;;;5073256;28;20051;-72
2021/09/03 03:17:26;;;;;;;15.48;10.40;;;12.20;99.90;;;;;;5072170;28;20048;-72
2021/09/03 03:19:52;;;;;;;14.38;9.15;;;12.20;99.90;;;;;;5071319;28;20051;-72
2021/09/03 03:22:18;;;;;;;14.82;9.13;;;12.10;99.90;;;;;;5072817;28;20033;-72
2021/09/03 03:24:44;;;;;;;14.65;9.63;;;12.10;99.90;;;;;;5073278;28;20037;-72
2021/09/03 03:27:09;;;;;;;16.08;9.25;;;12.10;99.90;;;;;;5071794;28;20033;-72
2021/09/03 03:29:35;;;;;;;15.70;9.57;;;12.10;99.90;;;;;;5054636;28;20048;-71
2021/09/03 03:32:01;;;;;;;14.98;9.60;;;12.10;99.90;;;;;;5075823;28;20037;-71
2021/09/03 03:34:27;;;;;;;11.90;8.00;;;12.10;99.90;;;;;;5075365;28;20036;-72
2021/09/03 03:36:53;;;;;;;12.82;8.65;;;12.10;99.90;;;;;;5058978;28;20123;-72
2021/09/03 03:39:18;;;;;;;12.25;8.25;;;12.10;99.90;;;;;;5076518;28;20040;-72
2021/09/03 03:41:44;;;;;;;14.25;9.23;;;12.10;99.90;;;;;;5075730;28;20088;-71
2021/09/03 03:44:10;;;;;;;12.00;8.20;;;12.10;99.90;;;;;;5075097;28;20442;-71
2021/09/03 03:46:35;;;;;;;15.38;9.05;;;12.10;99.90;;;;;;5075794;28;20032;-71
2021/09/03 03:49:01;;;;;;;14.30;8.05;;;12.10;99.90;;;;;;5076147;28;20036;-71
2021/09/03 03:51:27;;;;;;;12.80;8.43;;;12.00;99.90;;;;;;5076218;28;20044;-71
2021/09/03 03:53:52;;;;;;;13.55;7.40;;;12.00;99.90;;;;;;5075080;28;20051;-71
2021/09/03 03:56:18;;;;;;;11.20;7.22;;;12.00;99.90;;;;;;5075180;28;20041;-71
2021/09/03 03:58:44;;;;;;;11.30;6.78;;;12.00;99.90;;;;;;5074810;28;20041;-71
2021/09/03 04:01:10;;;;;;;8.38;6.13;;;11.90;99.90;;;;;;5058301;28;20102;-71
2021/09/03 04:03:35;;;;;;;8.80;5.80;;;11.90;99.90;;;;;;5075014;28;20041;-71
2021/09/03 04:06:01;;;;;;;11.80;5.60;;;11.90;99.90;;;;;;5076062;28;20068;-72
2021/09/03 04:08:27;;;;;;;10.23;5.50;;;11.90;99.90;;;;;;5074641;28;20101;-72
2021/09/03 04:10:52;;;;;;;6.80;4.72;;;11.90;99.90;;;;;;5076033;28;20396;-72
2021/09/03 04:13:19;;;;;;;9.13;6.05;;;11.90;99.90;;;;;;5075028;28;20040;-72
2021/09/03 04:15:45;;;;;;;9.60;6.32;;;11.90;99.90;;;;;;5076030;28;20438;-72
2021/09/03 04:18:11;;;;;;;9.55;6.68;;;11.80;99.90;;;;;;5075879;28;20089;-72
2021/09/03 04:20:36;;;;;;;10.27;6.30;;;11.80;99.90;;;;;;5075471;28;20040;-72
2021/09/03 04:23:02;;;;;;;9.45;6.15;;;11.80;99.90;;;;;;5075329;28;20040;-72
2021/09/03 04:25:28;;;;;;;8.10;5.55;;;11.80;99.90;;;;;;5075967;28;20102;-72
2021/09/03 04:27:53;;;;;;;7.90;5.78;;;11.70;99.90;;;;;;5075921;28;20275;-71
2021/09/03 04:30:19;;;;;;;9.57;5.15;;;11.80;99.90;;;;;;5074238;28;20040;-71
2021/09/03 04:32:45;;;;;;;9.02;5.78;;;11.70;99.90;;;;;;5075787;28;20441;-71
2021/09/03 04:35:11;;;;;;;6.90;4.32;;;11.70;99.90;;;;;;5076091;28;20131;-72
2021/09/03 04:37:49;;;;;;;6.32;4.13;;;11.80;99.90;;;;;;5075541;28;20059;-71
2021/09/03 04:40:17;;;;;;;6.32;4.03;;;11.70;99.90;;;;;;5075264;28;20082;-71
2021/09/03 04:42:43;;;;;;;7.90;4.53;;;11.70;99.90;;;;;;5074377;28;20037;-72
2021/09/03 04:45:10;;;;;;;5.75;4.20;;;11.70;99.90;;;;;;5074221;28;20090;-71
2021/09/03 04:47:36;;;;;;;4.82;3.83;;;11.70;99.90;;;;;;5075427;28;20041;-71
2021/09/03 04:50:03;;;;;;;6.10;3.63;;;11.60;99.90;;;;;;5075167;28;20036;-71
2021/09/03 04:52:28;;;;;;;5.15;3.80;;;11.60;99.90;;;;;;5073974;28;20103;-71
2021/09/03 04:54:54;;;;;;;5.55;3.90;;;11.60;99.90;;;;;;5075622;28;20040;-72
2021/09/03 04:57:20;;;;;;;5.05;3.53;;;11.60;99.90;;;;;;5075642;28;20040;-72
2021/09/03 04:59:45;;;;;;;5.72;3.63;;;11.60;99.90;;;;;;5074805;28;20037;-71
2021/09/03 05:02:11;;;;;;;7.18;4.40;;;11.60;99.90;;;;;;5073715;28;20040;-69
2021/09/03 05:04:36;;;;;;;6.47;4.63;;;11.60;99.90;;;;;;5074143;28;20045;-71
2021/09/03 05:07:02;;;;;;;8.52;5.00;;;11.50;99.90;;;;;;5073817;28;20044;-71
2021/09/03 05:09:28;;;;;;;6.28;4.57;;;11.50;99.90;;;;;;5073891;28;20397;-71
2021/09/03 05:11:53;;;;;;;8.18;5.22;;;11.60;99.90;;;;;;5073503;28;20503;-71
2021/09/03 05:14:19;;;;;;;9.77;5.13;;;11.60;99.90;;;;;;5075163;28;20043;-71
2021/09/03 05:16:44;;;;;;;7.72;5.00;;;11.60;99.90;;;;;;5073440;28;20048;-71
2021/09/03 05:19:10;;;;;;;7.60;5.25;;;11.70;99.90;;;;;;5074540;28;20052;-71
2021/09/03 05:21:36;;;;;;;9.93;5.78;;;11.60;99.90;;;;;;5073378;28;20044;-71
2021/09/03 05:24:01;;;;;;;8.63;5.72;;;11.70;99.90;;;;;;5074382;28;20045;-71
2021/09/03 05:26:27;;;;;;;8.70;6.43;;;11.70;99.90;;;;;;5074528;28;20381;-71
2021/09/03 05:28:53;;;;;;;10.43;6.25;;;11.80;99.90;;;;;;5074242;28;20036;-72
2021/09/03 05:31:18;;;;;;;8.25;5.90;;;11.70;99.90;;;;;;5056755;28;20456;-71
2021/09/03 05:33:44;;;;;;;11.30;7.03;;;11.80;99.90;;;;;;5073147;28;20052;-71
2021/09/03 05:36:10;;;;;;;10.73;6.57;;;11.90;99.90;;;;;;5074332;28;20124;-71
2021/09/03 05:38:36;;;;;;;10.63;6.32;;;11.90;99.90;;;;;;5072541;28;20040;-69
2021/09/03 05:41:02;;;;;;;13.32;6.68;;;12.00;99.90;;;;;;5074107;28;20036;-70
2021/09/03 05:43:28;;;;;;;13.88;6.65;;;12.00;99.90;;;;;;5073999;28;20041;-69
2021/09/03 05:45:53;;;;;;;8.80;5.18;;;12.00;99.90;;;;;;5074656;28;20161;-69
2021/09/03 05:48:19;;;;;;;10.85;5.45;;;12.10;99.90;;;;;;5073026;28;20047;-69
2021/09/03 05:50:44;;;;;;;9.05;5.57;;;12.10;99.90;;;;;;5073930;28;20464;-69
2021/09/03 05:53:10;;;;;;;9.75;6.03;;;12.10;99.90;;;;;;5074042;28;20446;-69
2021/09/03 05:55:36;;;;;;;12.15;7.43;;;12.20;99.90;;;;;;5074264;28;20043;-69
2021/09/03 05:58:02;;;;;;;15.27;8.05;;;12.20;99.90;;;;;;5072913;28;20480;-69
2021/09/03 06:00:28;;;;;;;13.55;8.88;;;12.20;99.90;;;;;;5073705;28;20048;-69
2021/09/03 06:02:53;;;;;;;19.08;8.63;;;12.20;99.90;;;;;;5072760;28;20055;-69
2021/09/03 06:05:19;;;;;;;14.10;8.85;;;12.30;99.90;;;;;;5073902;28;20041;-69
2021/09/03 06:07:44;;;;;;;19.25;9.82;;;12.30;99.90;;;;;;5073678;28;20176;-70
2021/09/03 06:10:11;;;;;;;21.23;10.15;;;12.40;99.90;;;;;;5072791;28;20046;-70
2021/09/03 06:12:37;;;;;;;16.48;10.25;;;12.40;99.90;;;;;;5074456;28;20058;-70
2021/09/03 06:15:07;;;;;;;24.15;11.57;;;12.60;99.90;;;;;;5074207;28;20047;-70
2021/09/03 06:17:33;;;;;;;22.42;11.60;;;12.60;99.90;;;;;;5074026;28;20118;-70
2021/09/03 06:19:58;;;;;;;19.98;10.25;;;12.70;99.90;;;;;;5073430;28;20434;-70
2021/09/03 06:22:25;;;;;;;18.67;10.07;;;12.80;99.90;;;;;;5073866;28;20460;-70
2021/09/03 06:24:50;;;;;;;14.20;8.00;;;12.80;99.90;;;;;;5072419;28;20471;-70
2021/09/03 06:27:16;;;;;;;14.93;8.65;;;12.90;99.90;;;;;;5074085;28;20068;-70
2021/09/03 06:29:42;;;;;;;17.77;10.35;;;12.90;99.90;;;;;;5072030;28;20089;-70
2021/09/03 06:32:12;;;;;;;23.75;11.30;;;13.00;99.90;;;;;;5073601;28;20051;-70
2021/09/03 06:34:40;;;;;;;20.00;12.00;;;13.10;99.90;;;;;;5073576;28;20036;-70
2021/09/03 06:37:07;;;;;;;25.48;12.00;;;13.20;99.90;;;;;;5073463;28;20029;-70
2021/09/03 06:39:33;;;;;;;28.15;12.25;;;13.30;99.90;;;;;;5073233;28;20042;-70
2021/09/03 06:41:59;;;;;;;22.98;12.40;;;13.30;99.90;;;;;;5072115;28;20043;-70
2021/09/03 06:44:25;;;;;;;18.52;12.60;;;13.40;99.90;;;;;;5073679;28;20079;-70
2021/09/03 06:46:51;;;;;;;20.73;12.05;;;13.50;99.90;;;;;;5073496;28;20525;-70
2021/09/03 06:49:16;;;;;;;23.70;12.90;;;13.60;99.90;;;;;;5073238;28;20042;-70
2021/09/03 06:51:42;;;;;;;24.13;13.10;;;13.70;99.90;;;;;;5073268;28;20037;-70
2021/09/03 06:54:08;;;;;;;24.40;13.50;;;13.70;99.90;;;;;;5073497;28;20404;-70
2021/09/03 06:56:33;;;;;;;21.90;13.48;;;13.80;99.90;;;;;;5072000;28;20044;-70
2021/09/03 06:59:00;;;;;;;28.63;15.35;;;13.90;99.90;;;;;;5072770;28;20045;-70
2021/09/03 07:01:26;;;;;;;23.75;13.82;;;14.00;99.90;;;;;;5073466;28;20370;-70
2021/09/03 07:03:52;;;;;;;31.63;15.88;;;14.10;99.90;;;;;;5073237;28;20166;-70
2021/09/03 07:06:17;;;;;;;26.70;14.02;;;14.20;99.90;;;;;;5074134;28;20064;-70
2021/09/03 07:08:43;;;;;;;23.30;13.70;;;14.30;99.90;;;;;;5076954;28;20086;-70
2021/09/03 07:11:08;;;;;;;26.10;14.85;;;14.40;99.90;;;;;;5077194;28;20123;-68
2021/09/03 07:13:35;;;;;;;28.83;14.77;;;14.50;99.90;;;;;;5077147;28;20400;-68
2021/09/03 07:16:01;;;;;;;30.10;16.08;;;14.50;99.90;;;;;;5077323;28;20040;-68
2021/09/03 07:18:27;;;;;;;26.05;13.85;;;14.60;99.90;;;;;;5077151;28;20617;-68
2021/09/03 07:20:52;;;;;;;24.20;13.20;;;14.70;99.90;;;;;;5076947;28;20137;-68
2021/09/03 07:23:18;;;;;;;26.10;14.65;;;14.80;99.90;;;;;;5076169;28;20372;-68
2021/09/03 07:25:43;;;;;;;31.27;15.98;;;14.80;99.90;;;;;;5076858;28;20039;-68
2021/09/03 07:28:09;;;;;;;25.55;12.82;;;14.90;99.90;;;;;;5076334;28;20048;-68
2021/09/03 07:30:35;;;;;;;20.52;13.25;;;15.00;99.90;;;;;;5076681;28;20040;-68
2021/09/03 07:33:00;;;;;;;25.88;14.20;;;15.00;99.90;;;;;;5076725;28;20035;-69
2021/09/03 07:35:26;;;;;;;23.17;13.98;;;15.20;99.90;;;;;;5076917;28;20041;-69
2021/09/03 07:37:52;;;;;;;25.25;14.27;;;15.20;99.90;;;;;;5076788;28;20044;-69
2021/09/03 07:40:17;;;;;;;22.45;13.65;;;15.30;99.90;;;;;;5076659;28;20125;-69
2021/09/03 07:42:44;;;;;;;23.23;13.25;;;15.40;99.90;;;;;;5076656;28;20403;-68
2021/09/03 07:45:10;;;;;;;24.27;12.48;;;15.40;99.90;;;;;;5076580;28;20127;-69
2021/09/03 07:47:36;;;;;;;26.75;15.13;;;15.50;99.90;;;;;;5076829;28;20350;-69
2021/09/03 07:50:03;;;;;;;24.70;13.05;;;15.60;99.90;;;;;;5075077;28;20043;-69
2021/09/03 07:52:29;;;;;;;23.70;11.98;;;15.60;99.90;;;;;;5076480;28;20029;-69
2021/09/03 07:54:54;;;;;;;31.15;14.25;;;15.70;99.90;;;;;;5075319;28;20041;-69
2021/09/03 07:57:20;;;;;;;19.63;12.55;;;15.80;99.90;;;;;;5076148;28;20070;-69
2021/09/03 07:59:45;;;;;;;24.42;13.55;;;15.90;99.90;;;;;;5075078;28;20052;-69
2021/09/03 08:02:11;;;;;;;27.63;12.38;;;16.00;99.90;;;;;;5076383;28;20036;-69
2021/09/03 08:04:37;;;;;;;22.00;12.68;;;16.00;99.90;;;;;;5076235;28;20499;-69
2021/09/03 08:07:02;;;;;;;30.60;15.35;;;16.10;99.90;;;;;;5076446;28;20483;-69
2021/09/03 08:09:28;;;;;;;27.98;15.18;;;16.20;99.90;;;;;;5076116;28;20033;-69
2021/09/03 08:11:56;;;;;;;29.90;14.52;;;16.20;99.90;;;;;;5076010;28;20112;-69
2021/09/03 08:14:22;;;;;;;29.35;13.07;;;16.20;99.90;;;;;;5076062;28;20491;-69
2021/09/03 08:16:48;;;;;;;24.23;13.18;;;16.20;99.90;;;;;;5076002;28;20037;-69
2021/09/03 08:19:14;;;;;;;29.38;12.85;;;16.20;99.90;;;;;;5075489;28;20048;-68
2021/09/03 08:21:39;;;;;;;26.30;13.55;;;16.30;99.90;;;;;;5074654;28;20048;-69
2021/09/03 08:24:06;;;;;;;25.92;13.63;;;16.30;99.90;;;;;;5075803;28;20112;-69
2021/09/03 08:26:32;;;;;;;29.60;13.38;;;16.20;99.90;;;;;;5074824;28;20048;-69
2021/09/03 08:28:58;;;;;;;23.77;12.98;;;16.30;99.90;;;;;;5075604;28;20559;-69
2021/09/03 08:31:23;;;;;;;30.73;13.30;;;16.30;99.90;;;;;;5074382;28;20036;-69
2021/09/03 08:33:50;;;;;;;31.63;12.88;;;16.30;99.90;;;;;;5075925;28;20385;-69
2021/09/03 08:36:17;;;;;;;27.60;13.93;;;16.30;99.90;;;;;;5074681;28;20379;-69
2021/09/03 08:38:43;;;;;;;25.58;12.80;;;16.30;99.90;;;;;;5075889;28;20050;-69
2021/09/03 08:41:09;;;;;;;25.60;13.35;;;16.30;99.90;;;;;;5075966;28;20396;-69
2021/09/03 08:43:34;;;;;;;25.85;13.23;;;16.30;99.90;;;;;;5075532;28;20089;-69
2021/09/03 08:46:00;;;;;;;27.05;13.50;;;16.20;99.90;;;;;;5075562;28;20041;-69
2021/09/03 08:48:26;;;;;;;24.50;12.98;;;16.30;99.90;;;;;;5075996;28;20350;-69
2021/09/03 08:50:54;;;;;;;22.52;13.18;;;16.40;99.90;;;;;;5074157;28;20048;-69
2021/09/03 08:53:22;;;;;;;27.05;13.40;;;16.40;99.90;;;;;;5075310;28;20033;-69
2021/09/03 08:55:50;;;;;;;26.05;14.27;;;16.40;99.90;;;;;;5073942;28;20045;-69
2021/09/03 08:58:16;;;;;;;27.92;13.48;;;16.50;99.90;;;;;;5075292;28;20111;-69
2021/09/03 09:00:44;;;;;;;26.50;12.43;;;16.50;99.90;;;;;;5074733;28;20369;-71
2021/09/03 09:03:13;;;;;;;24.65;12.73;;;16.50;99.90;;;;;;5074125;28;20040;-70
2021/09/03 09:05:56;;;;;;;28.35;14.98;;;16.50;99.90;;;;;;5075114;28;20052;-71
2021/09/03 09:08:30;;;;;;;28.50;12.27;;;16.50;99.90;;;;;;5074931;28;20044;-71
2021/09/03 09:10:59;;;;;;;25.20;13.07;;;16.60;99.90;;;;;;5057175;28;20098;-71
2021/09/03 09:13:33;;;;;;;25.20;12.52;;;16.70;99.90;;;;;;5075249;28;20048;-72
2021/09/03 09:16:02;;;;;;;21.67;12.20;;;16.60;99.90;;;;;;5075087;28;20037;-72
2021/09/03 09:18:42;;;;;;;24.73;12.10;;;16.60;99.90;;;;;;5073168;28;20424;-70
2021/09/03 09:21:16;;;;;;;24.73;12.57;;;16.60;99.90;;;;;;5069157;28;20119;-71
2021/09/03 09:23:52;;;;;;;;;;;16.60;99.90;;;;;;5095389;28;20078;-71
2021/09/03 09:26:19;;;;;;;20.83;12.45;;;16.60;99.90;;;;;;5093882;28;19916;-71
2021/09/03 09:28:46;;;;;;;24.05;13.25;;;16.60;99.90;;;;;;5094229;28;20047;-72
2021/09/03 09:31:27;;;;;;;18.73;11.30;;;16.60;99.90;;;;;;5094856;28;20067;-72
2021/09/03 09:33:53;;;;;;;24.73;11.40;;;16.70;99.90;;;;;;5093704;28;20089;-72
2021/09/03 09:36:19;;;;;;;17.48;10.88;;;16.70;99.90;;;;;;5093656;28;20503;-72
2021/09/03 09:38:45;;;;;;;18.88;11.40;;;16.70;99.90;;;;;;5094772;28;20047;-72
2021/09/03 09:41:13;;;;;;;20.38;9.93;;;16.70;99.90;;;;;;5093572;28;20132;-72
2021/09/03 09:43:43;;;;;;;20.70;10.07;;;16.70;99.90;;;;;;5093373;28;20477;-72
2021/09/03 09:46:13;;;;;;;15.55;8.95;;;16.60;99.90;;;;;;5094397;28;20533;-72
2021/09/03 09:48:51;;;;;;;20.55;9.50;;;16.70;99.90;;;;;;5094246;28;20032;-72
2021/09/03 09:51:21;;;;;;;19.33;9.88;;;16.80;99.90;;;;;;5092962;28;20072;-70
2021/09/03 09:54:01;;;;;;;19.05;10.55;;;16.80;99.90;;;;;;5094253;28;20032;-70
2021/09/03 09:56:29;;;;;;;18.65;11.00;;;16.80;99.90;;;;;;5093449;28;20435;-70
2021/09/03 09:58:57;;;;;;;16.13;11.07;;;16.70;99.90;;;;;;5094026;28;20044;-70
2021/09/03 10:01:23;;;;;;;15.65;10.02;;;16.80;99.90;;;;;;5092814;28;20376;-71
2021/09/03 10:03:51;;;;;;;21.33;10.45;;;16.90;99.90;;;;;;5094625;28;20047;-71
2021/09/03 10:06:18;;;;;;;14.52;9.65;;;16.90;99.90;;;;;;5094138;28;20507;-71
2021/09/03 10:08:45;;;;;;;16.48;9.70;;;16.80;99.90;;;;;;5093696;28;20047;-71
2021/09/03 10:11:16;;;;;;;16.33;8.90;;;16.80;99.90;;;;;;5092604;28;20051;-71
2021/09/03 10:13:42;;;;;;;15.85;8.57;;;16.90;99.90;;;;;;5093885;28;20055;-71
2021/09/03 10:16:08;;;;;;;17.15;8.93;;;17.00;99.90;;;;;;5093077;28;20079;-71
2021/09/03 10:18:34;;;;;;;15.02;9.20;;;17.00;99.90;;;;;;5093925;28;20051;-71
2021/09/03 10:21:01;;;;;;;16.65;9.35;;;16.90;99.90;;;;;;5092243;28;20054;-70
2021/09/03 10:23:46;;;;;;;16.27;8.82;;;16.90;99.90;;;;;;5075850;28;20040;-71
2021/09/03 10:26:13;;;;;;;19.00;8.70;;;17.00;99.90;;;;;;5093761;28;20040;-71
2021/09/03 10:28:39;;;;;;;16.02;9.73;;;16.90;99.90;;;;;;5093780;28;20065;-72
2021/09/03 10:31:06;;;;;;;17.42;9.73;;;17.00;99.90;;;;;;5092804;28;20048;-71
2021/09/03 10:33:38;;;;;;;21.65;11.80;;;17.10;99.90;;;;;;5093959;28;20044;-71
2021/09/03 10:36:05;;;;;;;17.55;10.30;;;17.20;99.90;;;;;;5093455;28;20036;-71
2021/09/03 10:38:34;;;;;;;16.42;10.25;;;17.20;99.90;;;;;;5093627;28;20032;-71
2021/09/03 10:41:01;;;;;;;18.08;11.63;;;17.10;99.90;;;;;;5092366;28;20032;-71
2021/09/03 10:43:39;;;;;;;18.27;10.18;;;17.20;99.90;;;;;;5092380;28;20051;-71
2021/09/03 10:46:07;;;;;;;17.17;11.20;;;17.30;99.90;;;;;;5092221;28;20048;-75
2021/09/03 10:48:33;;;;;;;19.63;11.25;;;17.40;99.90;;;;;;5091668;28;20035;-69
2021/09/03 10:50:59;;;;;;;22.30;12.23;;;17.70;99.90;;;;;;5093450;28;20059;-69
2021/09/03 10:53:32;;;;;;;16.15;11.20;;;18.00;99.90;;;;;;5092066;28;20504;-68
2021/09/03 10:56:07;;;;;;;20.98;11.43;;;18.00;99.90;;;;;;5092487;28;20047;-68
2021/09/03 10:58:51;;;;;;;19.63;10.82;;;18.30;99.90;;;;;;5092085;28;20051;-69
2021/09/03 11:01:26;;;;;;;18.27;11.00;;;18.30;99.90;;;;;;5092827;28;20051;-69
2021/09/03 11:03:59;;;;;;;16.85;10.05;;;18.30;99.90;;;;;;5092175;28;20054;-70
2021/09/03 11:06:25;;;;;;;18.27;10.38;;;18.20;99.90;;;;;;5093307;28;20047;-69
2021/09/03 11:08:51;;;;;;;14.45;9.63;;;18.20;99.90;;;;;;5093023;28;20048;-69
2021/09/03 11:11:37;;;;;;;19.50;9.38;;;18.20;99.90;;;;;;5092707;28;20133;-70
2021/09/03 11:14:14;;;;;;;18.00;9.68;;;18.30;99.90;;;;;;5092191;28;20050;-70
2021/09/03 11:16:40;;;;;;;13.80;9.40;;;18.30;99.90;;;;;;5093742;28;20044;-68
2021/09/03 11:19:14;;;;;;;15.32;9.70;;;18.50;99.90;;;;;;5091570;28;20048;-70
2021/09/03 11:21:59;;;;;;;19.23;11.00;;;18.50;99.90;;;;;;5092442;28;20388;-70
2021/09/03 11:24:32;;;;;;;13.80;9.25;;;18.60;99.90;;;;;;5091946;28;20055;-69
2021/09/03 11:27:01;;;;;;;17.92;9.30;;;18.50;99.90;;;;;;5093269;28;20043;-70
2021/09/03 11:29:30;;;;;;;14.32;8.32;;;18.60;99.90;;;;;;5093010;28;20047;-70
2021/09/03 11:31:58;;;;;;;15.52;7.55;;;18.60;99.90;;;;;;5092872;28;20089;-69
2021/09/03 11:34:43;;;;;;;11.98;7.40;;;18.60;99.90;;;;;;5091734;28;20048;-70
2021/09/03 11:37:33;;;;;;;17.02;8.70;;;18.30;99.90;;;;;;5075433;28;20044;-70
2021/09/03 11:40:40;;;;;;;16.02;9.20;;;18.40;99.90;;;;;;5091055;28;20523;-70
2021/09/03 11:43:06;;;;;;;10.88;7.38;;;18.50;99.90;;;;;;5092424;28;20052;-70
2021/09/03 11:45:42;;;;;;;16.67;8.52;;;18.60;99.90;;;;;;5093028;28;20549;-70
2021/09/03 11:48:14;;;;;;;14.60;9.02;;;18.40;99.90;;;;;;5092930;28;20100;-70
2021/09/03 11:50:49;;;;;;;16.48;9.55;;;18.60;99.90;;;;;;5091807;28;20442;-70
2021/09/03 11:53:23;;;;;;;16.90;10.35;;;18.60;99.90;;;;;;5096401;28;20091;-70
2021/09/03 11:55:50;;;;;;;18.65;10.00;;;18.60;99.90;;;;;;5097065;28;20044;-70
2021/09/03 11:58:19;;;;;;;14.60;9.75;;;18.60;99.90;;;;;;5096800;28;20044;-69
2021/09/03 12:00:50;;;;;;;16.13;10.35;;;18.60;99.90;;;;;;5096344;28;20036;-70
2021/09/03 12:03:30;;;;;;;20.20;10.02;;;18.70;99.90;;;;;;5096453;28;20472;-71
2021/09/03 12:05:57;;;;;;;19.35;10.43;;;18.70;99.90;;;;;;5096669;28;20048;-71
2021/09/03 12:08:23;;;;;;;18.77;10.45;;;18.50;99.90;;;;;;5096395;28;20040;-72
2021/09/03 12:10:56;;;;;;;18.23;9.85;;;18.40;99.90;;;;;;5096046;28;20097;-71
2021/09/03 12:13:24;;;;;;;;;;;18.40;99.90;;;;;;5095832;28;20040;-71
2021/09/03 12:16:16;;;;;;;14.63;9.90;;;18.40;99.90;;;;;;5095237;28;19923;-71
2021/09/03 12:18:43;;;;;;;18.73;10.52;;;18.40;99.90;;;;;;5095545;28;20052;-71
2021/09/03 12:21:12;;;;;;;20.00;10.98;;;18.50;99.90;;;;;;5096058;28;20407;-72
2021/09/03 12:23:44;;;;;;;20.83;11.32;;;18.40;99.90;;;;;;5096580;28;20035;-71
2021/09/03 12:26:25;;;;;;;18.25;10.45;;;18.50;99.90;;;;;;5096191;28;20048;-72
2021/09/03 12:28:53;;;;;;;17.90;10.32;;;18.50;99.90;;;;;;5094535;28;20044;-71
2021/09/03 12:31:28;;;;;;;15.48;10.05;;;18.50;99.90;;;;;;5096143;28;20094;-71
2021/09/03 12:33:57;;;;;;;16.73;9.57;;;18.60;99.90;;;;;;5095889;28;20036;-71